createdAt,value
2023-01-28T00:02:01.634Z,2.80
2023-01-28T00:04:29.502Z,2.80
2023-01-28T00:06:57.374Z,2.80
2023-01-28T00:09:26.552Z,2.80
2023-01-28T00:11:54.404Z,2.80
2023-01-28T00:14:22.182Z,2.80
2023-01-28T00:16:50.000Z,2.80
2023-01-28T00:19:17.798Z,2.80
2023-01-28T00:21:45.615Z,2.80
2023-01-28T00:24:16.097Z,2.80
2023-01-28T00:26:45.257Z,2.80
2023-01-28T00:29:13.069Z,2.80
2023-01-28T00:31:41.298Z,2.80
2023-01-28T00:34:10.211Z,2.80
2023-01-28T00:36:44.697Z,2.80
2023-01-28T00:39:16.000Z,2.80
2023-01-28T00:41:45.102Z,2.70
2023-01-28T00:44:12.957Z,2.70
2023-01-28T00:46:41.839Z,2.70
2023-01-28T00:49:12.642Z,2.70
2023-01-28T00:51:40.473Z,2.70
2023-01-28T00:54:08.484Z,2.70
2023-01-28T00:56:38.738Z,2.70
2023-01-28T00:59:07.939Z,2.70
2023-01-28T01:01:38.303Z,2.70
2023-01-28T01:04:06.323Z,2.70
2023-01-28T01:06:36.536Z,2.70
2023-01-28T01:09:08.549Z,2.80
2023-01-28T01:11:37.282Z,2.80
2023-01-28T01:14:05.237Z,2.80
2023-01-28T01:16:36.146Z,2.70
2023-01-28T01:19:04.310Z,2.70
2023-01-28T01:21:32.657Z,2.70
2023-01-28T01:24:00.530Z,2.80
2023-01-28T01:26:28.449Z,2.70
2023-01-28T01:28:56.294Z,2.80
2023-01-28T01:31:24.298Z,2.80
2023-01-28T01:33:55.822Z,2.70
2023-01-28T01:36:23.817Z,2.70
2023-01-28T01:38:54.835Z,2.80
2023-01-28T01:41:29.685Z,2.70
2023-01-28T01:43:59.275Z,2.80
2023-01-28T01:46:35.754Z,2.80
2023-01-28T01:49:14.070Z,2.80
2023-01-28T01:51:42.520Z,2.80
2023-01-28T01:54:13.662Z,2.80
2023-01-28T01:56:43.593Z,2.80
2023-01-28T01:59:15.907Z,2.70
2023-01-28T02:01:46.559Z,2.70
2023-01-28T02:04:23.376Z,2.70
2023-01-28T02:06:51.565Z,2.70
2023-01-28T02:09:24.778Z,2.70
2023-01-28T02:11:56.057Z,2.70
2023-01-28T02:14:31.021Z,2.70
2023-01-28T02:16:59.967Z,2.70
2023-01-28T02:19:44.001Z,2.70
2023-01-28T02:22:48.209Z,2.70
2023-01-28T02:25:51.084Z,2.70
2023-01-28T02:28:28.542Z,2.70
2023-01-28T02:31:04.972Z,2.70
2023-01-28T02:33:40.399Z,2.70
2023-01-28T02:36:18.423Z,2.70
2023-01-28T02:38:49.876Z,2.70
2023-01-28T02:41:25.186Z,2.70
2023-01-28T02:43:54.296Z,2.70
2023-01-28T02:46:51.879Z,2.70
2023-01-28T02:49:24.113Z,2.70
2023-01-28T02:52:11.987Z,2.70
2023-01-28T02:54:44.837Z,2.70
2023-01-28T02:57:24.908Z,2.70
2023-01-28T03:00:04.469Z,2.70
2023-01-28T03:02:37.592Z,2.70
2023-01-28T03:05:11.277Z,2.70
2023-01-28T03:07:40.525Z,2.70
2023-01-28T03:10:13.604Z,2.70
2023-01-28T03:13:03.017Z,2.70
2023-01-28T03:15:54.188Z,2.70
2023-01-28T03:18:43.318Z,2.70
2023-01-28T03:21:32.216Z,2.70
2023-01-28T03:24:21.572Z,2.70
2023-01-28T03:27:15.337Z,2.70
2023-01-28T03:30:02.471Z,2.70
2023-01-28T03:32:50.313Z,2.70
2023-01-28T03:35:38.414Z,2.70
2023-01-28T03:38:18.055Z,2.70
2023-01-28T03:40:50.939Z,2.70
2023-01-28T03:43:18.760Z,2.70
2023-01-28T03:45:51.540Z,2.70
2023-01-28T03:48:23.518Z,2.70
2023-01-28T03:50:52.179Z,2.70
2023-01-28T03:53:20.765Z,2.70
2023-01-28T03:55:50.397Z,2.70
2023-01-28T03:58:19.426Z,2.70
2023-01-28T04:00:47.673Z,2.70
2023-01-28T04:03:17.285Z,2.70
2023-01-28T04:05:48.057Z,2.70
2023-01-28T04:08:15.852Z,2.70
2023-01-28T04:10:43.909Z,2.70
2023-01-28T04:13:14.409Z,2.70
2023-01-28T04:15:43.498Z,2.70
2023-01-28T04:18:12.598Z,2.70
2023-01-28T04:20:40.916Z,2.70
2023-01-28T04:23:11.327Z,2.70
2023-01-28T04:25:39.116Z,2.70
2023-01-28T04:28:09.439Z,2.70
2023-01-28T04:30:37.292Z,2.70
2023-01-28T04:33:05.225Z,2.70
2023-01-28T04:35:35.656Z,2.70
2023-01-28T04:38:03.575Z,2.70
2023-01-28T04:40:35.755Z,2.70
2023-01-28T04:43:03.556Z,2.70
2023-01-28T04:45:31.901Z,2.70
2023-01-28T04:47:59.752Z,2.70
2023-01-28T04:50:27.685Z,2.70
2023-01-28T04:52:55.448Z,2.70
2023-01-28T04:55:23.245Z,2.70
2023-01-28T04:57:52.386Z,2.70
2023-01-28T05:00:20.868Z,2.70
2023-01-28T05:02:48.708Z,2.70
2023-01-28T05:05:18.052Z,2.70
2023-01-28T05:07:51.213Z,2.70
2023-01-28T05:10:19.543Z,2.70
2023-01-28T05:12:48.001Z,2.70
2023-01-28T05:15:18.097Z,2.70
2023-01-28T05:17:46.651Z,2.70
2023-01-28T05:20:14.868Z,2.70
2023-01-28T05:22:43.479Z,2.70
2023-01-28T05:25:11.536Z,2.70
2023-01-28T05:27:39.323Z,2.70
2023-01-28T05:30:08.367Z,2.70
2023-01-28T05:32:37.490Z,2.70
2023-01-28T05:35:06.033Z,2.70
2023-01-28T05:37:33.899Z,2.70
2023-01-28T05:40:01.677Z,2.70
2023-01-28T05:42:29.727Z,2.80
2023-01-28T05:44:57.502Z,2.70
2023-01-28T05:47:25.258Z,2.70
2023-01-28T05:49:54.345Z,2.80
2023-01-28T05:52:22.355Z,2.80
2023-01-28T05:54:50.190Z,2.80
2023-01-28T05:57:17.990Z,2.80
2023-01-28T05:59:47.738Z,2.80
2023-01-28T06:02:15.571Z,2.80
2023-01-28T06:04:43.365Z,2.80
2023-01-28T06:07:13.229Z,2.80
2023-01-28T06:09:41.032Z,2.80
2023-01-28T06:12:09.108Z,2.80
2023-01-28T06:14:39.257Z,2.80
2023-01-28T06:17:07.019Z,2.80
2023-01-28T06:19:34.974Z,2.80
2023-01-28T06:22:02.832Z,2.80
2023-01-28T06:24:32.020Z,2.80
2023-01-28T06:26:59.834Z,2.80
2023-01-28T06:29:27.602Z,2.80
2023-01-28T06:31:55.540Z,2.80
2023-01-28T06:34:23.358Z,2.80
2023-01-28T06:36:53.243Z,2.80
2023-01-28T06:39:22.141Z,2.80
2023-01-28T06:41:51.533Z,2.80
2023-01-28T06:44:21.129Z,2.80
2023-01-28T06:46:48.942Z,2.80
2023-01-28T06:49:17.011Z,2.80
2023-01-28T06:51:49.086Z,2.80
2023-01-28T06:54:17.429Z,2.80
2023-01-28T06:56:45.262Z,2.80
2023-01-28T06:59:14.377Z,2.80
2023-01-28T07:01:42.282Z,2.80
2023-01-28T07:04:10.161Z,2.80
2023-01-28T07:06:37.959Z,2.80
2023-01-28T07:09:05.756Z,2.80
2023-01-28T07:11:33.541Z,2.80
2023-01-28T07:14:01.355Z,2.80
2023-01-28T07:16:32.245Z,2.80
2023-01-28T07:19:07.392Z,2.90
2023-01-28T07:21:37.866Z,2.80
2023-01-28T07:24:10.316Z,2.80
2023-01-28T07:26:38.188Z,2.80
2023-01-28T07:29:06.065Z,2.80
2023-01-28T07:31:35.593Z,2.80
2023-01-28T07:34:06.312Z,2.80
2023-01-28T07:36:34.301Z,2.80
2023-01-28T07:39:02.066Z,2.80
2023-01-28T07:41:30.030Z,2.80
2023-01-28T07:43:57.807Z,2.80
2023-01-28T07:46:25.717Z,2.80
2023-01-28T07:48:54.900Z,2.80
2023-01-28T07:51:22.743Z,2.80
2023-01-28T07:53:50.509Z,2.80
2023-01-28T07:56:18.385Z,2.80
2023-01-28T07:58:46.162Z,2.80
2023-01-28T08:01:14.811Z,2.80
2023-01-28T08:03:42.697Z,2.80
2023-01-28T08:06:12.549Z,2.80
2023-01-28T08:08:40.389Z,2.80
2023-01-28T08:11:10.595Z,2.80
2023-01-28T08:13:38.451Z,2.80
2023-01-28T08:16:09.298Z,2.80
2023-01-28T08:18:37.207Z,2.90
2023-01-28T08:21:05.441Z,2.80
2023-01-28T08:23:37.787Z,2.90
2023-01-28T08:26:05.653Z,2.80
2023-01-28T08:28:36.461Z,2.90
2023-01-28T08:31:04.784Z,2.90
2023-01-28T08:33:32.986Z,2.90
2023-01-28T08:36:04.289Z,2.90
2023-01-28T08:38:32.088Z,2.90
2023-01-28T08:41:01.384Z,2.90
2023-01-28T08:43:31.657Z,2.90
2023-01-28T08:46:14.706Z,2.90
2023-01-28T08:48:42.590Z,2.90
2023-01-28T08:51:10.527Z,2.90
2023-01-28T08:53:38.461Z,2.90
2023-01-28T08:56:08.568Z,2.90
2023-01-28T08:58:36.671Z,2.90
2023-01-28T09:01:06.228Z,2.90
2023-01-28T09:03:36.046Z,2.90
2023-01-28T09:06:04.432Z,2.90
2023-01-28T09:08:32.252Z,2.90
2023-01-28T09:11:00.974Z,2.90
2023-01-28T09:13:30.867Z,2.90
2023-01-28T09:15:58.873Z,2.90
2023-01-28T09:18:26.802Z,2.90
2023-01-28T09:20:54.571Z,2.90
2023-01-28T09:23:22.406Z,2.90
2023-01-28T09:25:50.232Z,2.90
2023-01-28T09:28:18.085Z,3.00
2023-01-28T09:30:47.255Z,3.00
2023-01-28T09:33:15.117Z,3.00
2023-01-28T09:35:42.931Z,3.00
2023-01-28T09:38:10.779Z,3.00
2023-01-28T09:40:41.695Z,3.00
2023-01-28T09:43:32.775Z,3.00
2023-01-28T09:46:05.626Z,3.00
2023-01-28T09:48:39.006Z,3.10
2023-01-28T09:51:10.481Z,3.00
2023-01-28T09:53:44.331Z,3.10
2023-01-28T09:56:17.038Z,3.10
2023-01-28T09:58:44.862Z,3.10
2023-01-28T10:01:35.716Z,3.10
2023-01-28T10:04:16.401Z,3.10
2023-01-28T10:06:54.747Z,3.10
2023-01-28T10:09:34.355Z,3.10
2023-01-28T10:12:12.884Z,3.10
2023-01-28T10:14:53.087Z,3.10
2023-01-28T10:17:27.564Z,3.20
2023-01-28T10:20:00.772Z,3.20
2023-01-28T10:22:32.937Z,3.20
2023-01-28T10:25:06.865Z,3.20
2023-01-28T10:27:41.543Z,3.20
2023-01-28T10:30:19.553Z,3.20
2023-01-28T10:32:53.703Z,3.20
2023-01-28T10:35:22.542Z,3.20
2023-01-28T10:37:51.248Z,3.20
2023-01-28T10:40:21.104Z,3.20
2023-01-28T10:42:49.241Z,3.20
2023-01-28T10:45:22.184Z,3.20
2023-01-28T10:47:55.355Z,3.20
2023-01-28T10:50:26.515Z,3.20
2023-01-28T10:52:54.914Z,3.20
2023-01-28T10:55:23.730Z,3.20
2023-01-28T10:57:51.845Z,3.20
2023-01-28T11:00:25.652Z,3.20
2023-01-28T11:02:55.957Z,3.20
2023-01-28T11:05:27.178Z,3.30
2023-01-28T11:08:04.219Z,3.30
2023-01-28T11:10:36.707Z,3.30
2023-01-28T11:13:05.909Z,3.40
2023-01-28T11:15:34.595Z,3.30
2023-01-28T11:18:08.442Z,3.30
2023-01-28T11:20:42.186Z,3.40
2023-01-28T11:23:20.435Z,3.40
2023-01-28T11:25:48.451Z,3.40
2023-01-28T11:28:20.513Z,3.40
2023-01-28T11:30:53.943Z,3.40
2023-01-28T11:33:33.101Z,3.40
2023-01-28T11:36:07.819Z,3.40
2023-01-28T11:38:38.614Z,3.40
2023-01-28T11:41:08.638Z,3.50
2023-01-28T11:43:36.730Z,3.50
2023-01-28T11:46:23.477Z,3.50
2023-01-28T11:49:02.036Z,3.50
2023-01-28T11:51:43.107Z,3.50
2023-01-28T11:54:33.499Z,3.50
2023-01-28T11:57:10.303Z,3.50
2023-01-28T12:00:12.496Z,3.60
2023-01-28T12:03:11.746Z,3.50
2023-01-28T12:05:52.537Z,3.60
2023-01-28T12:08:24.866Z,3.60
2023-01-28T12:11:13.777Z,3.60
2023-01-28T12:13:59.608Z,3.60
2023-01-28T12:16:42.647Z,3.70
2023-01-28T12:19:37.463Z,3.60
2023-01-28T12:22:31.678Z,3.70
2023-01-28T12:25:21.740Z,3.70
2023-01-28T12:27:57.041Z,3.60
2023-01-28T12:30:36.267Z,3.70
2023-01-28T12:33:35.587Z,3.70
2023-01-28T12:36:17.726Z,3.70
2023-01-28T12:38:59.022Z,3.70
2023-01-28T12:41:31.146Z,3.70
2023-01-28T12:44:03.456Z,3.70
2023-01-28T12:46:40.602Z,3.80
2023-01-28T12:49:14.301Z,3.80
2023-01-28T12:51:55.344Z,3.70
2023-01-28T12:54:29.853Z,3.80
2023-01-28T12:56:58.032Z,3.80
2023-01-28T12:59:32.062Z,3.80
2023-01-28T13:02:16.306Z,3.80
2023-01-28T13:04:51.705Z,3.80
2023-01-28T13:07:28.238Z,3.80
2023-01-28T13:10:04.802Z,3.80
2023-01-28T13:12:33.875Z,3.90
2023-01-28T13:15:05.235Z,3.90
2023-01-28T13:17:33.959Z,3.90
2023-01-28T13:20:01.952Z,3.90
2023-01-28T13:22:32.710Z,3.90
2023-01-28T13:25:28.057Z,3.90
2023-01-28T13:27:57.949Z,3.90
2023-01-28T13:30:28.999Z,3.90
2023-01-28T13:33:03.608Z,4.00
2023-01-28T13:35:34.574Z,4.00
2023-01-28T13:38:09.436Z,4.00
2023-01-28T13:40:42.624Z,4.00
2023-01-28T13:43:37.972Z,4.00
2023-01-28T13:46:08.985Z,4.00
2023-01-28T13:48:43.795Z,4.00
2023-01-28T13:51:20.059Z,4.00
2023-01-28T13:53:54.684Z,4.00
2023-01-28T13:56:30.022Z,4.00
2023-01-28T13:59:32.605Z,4.00
2023-01-28T14:02:35.669Z,4.00
2023-01-28T14:05:46.991Z,3.90
2023-01-28T14:08:50.836Z,3.90
2023-01-28T14:12:00.956Z,3.90
2023-01-28T14:14:57.755Z,3.80
2023-01-28T14:17:34.543Z,3.80
2023-01-28T14:20:06.318Z,3.80
2023-01-28T14:22:43.434Z,3.70
2023-01-28T14:25:16.251Z,3.70
2023-01-28T14:27:49.435Z,3.70
2023-01-28T14:30:26.909Z,3.70
2023-01-28T14:32:58.190Z,3.70
2023-01-28T14:35:31.434Z,3.70
2023-01-28T14:38:07.742Z,3.70
2023-01-28T14:40:40.074Z,3.60
2023-01-28T14:43:22.591Z,3.60
2023-01-28T14:46:07.279Z,3.60
2023-01-28T14:48:43.082Z,3.50
2023-01-28T14:51:45.689Z,3.50
2023-01-28T14:54:34.592Z,3.50
2023-01-28T14:57:18.564Z,3.40
2023-01-28T14:59:51.406Z,3.40
2023-01-28T15:02:21.794Z,3.30
2023-01-28T15:04:50.775Z,3.30
2023-01-28T15:07:21.349Z,3.30
2023-01-28T15:10:01.838Z,3.30
2023-01-28T15:12:31.614Z,3.30
2023-01-28T15:15:09.713Z,3.30
2023-01-28T15:17:37.674Z,3.20
2023-01-28T15:20:09.542Z,3.30
2023-01-28T15:22:38.364Z,3.30
2023-01-28T15:25:06.805Z,3.20
2023-01-28T15:27:34.763Z,3.20
2023-01-28T15:30:04.131Z,3.20
2023-01-28T15:32:34.718Z,3.20
2023-01-28T15:35:02.517Z,3.20
2023-01-28T15:37:30.347Z,3.10
2023-01-28T15:40:07.055Z,3.20
2023-01-28T15:42:35.858Z,3.20
2023-01-28T15:45:05.892Z,3.10
2023-01-28T15:47:35.783Z,3.10
2023-01-28T15:50:06.438Z,3.10
2023-01-28T15:52:36.489Z,3.10
2023-01-28T15:55:06.511Z,3.10
2023-01-28T15:57:35.947Z,3.10
2023-01-28T16:00:19.766Z,3.10
2023-01-28T16:02:51.162Z,3.10
2023-01-28T16:05:28.091Z,3.10
2023-01-28T16:07:56.797Z,3.10
2023-01-28T16:10:28.314Z,3.10
2023-01-28T16:13:04.677Z,3.10
2023-01-28T16:15:34.917Z,3.10
2023-01-28T16:18:03.956Z,3.10
2023-01-28T16:20:32.367Z,3.10
2023-01-28T16:23:03.177Z,3.10
2023-01-28T16:25:33.085Z,3.10
2023-01-28T16:28:02.836Z,3.10
2023-01-28T16:30:34.474Z,3.10
2023-01-28T16:33:03.654Z,3.10
2023-01-28T16:35:51.649Z,3.10
2023-01-28T16:38:19.999Z,3.10
2023-01-28T16:40:48.828Z,3.10
2023-01-28T16:43:18.074Z,3.10
2023-01-28T16:45:46.956Z,3.10
2023-01-28T16:48:16.205Z,3.10
2023-01-28T16:50:44.571Z,3.10
2023-01-28T16:53:20.032Z,3.00
2023-01-28T16:55:50.708Z,3.00
2023-01-28T16:58:22.531Z,3.10
2023-01-28T17:00:50.437Z,3.00
2023-01-28T17:03:19.784Z,3.00
2023-01-28T17:05:47.774Z,3.00
2023-01-28T17:08:16.922Z,3.00
2023-01-28T17:10:44.870Z,3.00
2023-01-28T17:13:12.754Z,2.90
2023-01-28T17:15:40.591Z,2.90
2023-01-28T17:18:10.941Z,2.90
2023-01-28T17:20:41.156Z,2.90
2023-01-28T17:23:09.469Z,2.90
2023-01-28T17:25:40.758Z,2.90
2023-01-28T17:28:09.641Z,2.90
2023-01-28T17:30:41.231Z,2.90
2023-01-28T17:33:09.641Z,2.80
2023-01-28T17:35:37.565Z,2.80
2023-01-28T17:38:07.115Z,2.80
2023-01-28T17:40:35.020Z,2.80
2023-01-28T17:43:02.876Z,2.80
2023-01-28T17:45:32.045Z,2.80
2023-01-28T17:47:59.963Z,2.80
2023-01-28T17:50:28.131Z,2.80
2023-01-28T17:52:56.706Z,2.80
2023-01-28T17:55:28.545Z,2.80
2023-01-28T17:57:59.302Z,2.80
2023-01-28T18:00:27.562Z,2.80
2023-01-28T18:02:58.375Z,2.70
2023-01-28T18:05:28.773Z,2.70
2023-01-28T18:07:57.498Z,2.80
2023-01-28T18:10:26.675Z,2.70
2023-01-28T18:12:55.706Z,2.70
2023-01-28T18:15:24.640Z,2.70
2023-01-28T18:17:53.275Z,2.70
2023-01-28T18:20:24.176Z,2.70
2023-01-28T18:22:51.954Z,2.70
2023-01-28T18:25:20.120Z,2.60
2023-01-28T18:27:49.403Z,2.60
2023-01-28T18:30:18.325Z,2.60
2023-01-28T18:32:46.471Z,2.60
2023-01-28T18:35:14.961Z,2.60
2023-01-28T18:37:43.026Z,2.60
2023-01-28T18:40:12.053Z,2.60
2023-01-28T18:42:39.910Z,2.60
2023-01-28T18:45:09.982Z,2.60
2023-01-28T18:47:37.783Z,2.50
2023-01-28T18:50:06.673Z,2.50
2023-01-28T18:52:34.571Z,2.50
2023-01-28T18:55:02.378Z,2.50
2023-01-28T18:57:30.173Z,2.50
2023-01-28T19:00:01.079Z,2.50
2023-01-28T19:02:30.318Z,2.50
2023-01-28T19:04:58.194Z,2.50
2023-01-28T19:07:27.885Z,2.50
2023-01-28T19:09:55.698Z,2.50
2023-01-28T19:12:23.624Z,2.50
2023-01-28T19:14:51.460Z,2.50
2023-01-28T19:17:19.293Z,2.50
2023-01-28T19:19:48.425Z,2.50
2023-01-28T19:22:16.549Z,2.50
2023-01-28T19:24:44.400Z,2.50
2023-01-28T19:27:14.268Z,2.50
2023-01-28T19:29:43.280Z,2.50
2023-01-28T19:32:12.785Z,2.50
2023-01-28T19:34:40.588Z,2.40
2023-01-28T19:37:09.940Z,2.50
2023-01-28T19:39:37.841Z,2.50
2023-01-28T19:42:05.778Z,2.40
2023-01-28T19:44:34.329Z,2.40
2023-01-28T19:47:02.245Z,2.40
2023-01-28T19:49:32.854Z,2.40
2023-01-28T19:52:01.002Z,2.30
2023-01-28T19:54:30.163Z,2.30
2023-01-28T19:56:57.986Z,2.40
2023-01-28T19:59:25.838Z,2.40
2023-01-28T20:01:53.669Z,2.40
2023-01-28T20:04:21.492Z,2.30
2023-01-28T20:06:50.263Z,2.40
2023-01-28T20:09:20.743Z,2.40
2023-01-28T20:11:49.957Z,2.30
2023-01-28T20:14:18.169Z,2.30
2023-01-28T20:16:45.984Z,2.40
2023-01-28T20:19:15.980Z,2.30
2023-01-28T20:21:44.119Z,2.30
2023-01-28T20:24:13.199Z,2.30
2023-01-28T20:26:43.206Z,2.30
2023-01-28T20:29:14.722Z,2.30
2023-01-28T20:31:43.484Z,2.40
2023-01-28T20:34:16.536Z,2.40
2023-01-28T20:36:47.715Z,2.40
2023-01-28T20:39:15.593Z,2.40
2023-01-28T20:41:43.401Z,2.30
2023-01-28T20:44:12.668Z,2.30
2023-01-28T20:46:40.470Z,2.30
2023-01-28T20:49:09.242Z,2.30
2023-01-28T20:51:43.496Z,2.30
2023-01-28T20:54:12.589Z,2.30
2023-01-28T20:56:41.089Z,2.20
2023-01-28T20:59:09.085Z,2.30
2023-01-28T21:01:38.808Z,2.00
2023-01-28T21:04:10.529Z,2.20
2023-01-28T21:06:39.824Z,2.30
2023-01-28T21:09:07.940Z,2.20
2023-01-28T21:11:35.792Z,2.20
2023-01-28T21:14:03.641Z,2.20
2023-01-28T21:16:31.783Z,2.20
2023-01-28T21:19:01.063Z,2.20
2023-01-28T21:21:29.737Z,2.20
2023-01-28T21:24:00.600Z,2.20
2023-01-28T21:26:28.624Z,2.10
2023-01-28T21:28:59.334Z,2.10
2023-01-28T21:31:30.268Z,2.10
2023-01-28T21:34:02.131Z,2.10
2023-01-28T21:36:33.596Z,2.10
2023-01-28T21:39:03.289Z,2.10
2023-01-28T21:41:31.876Z,2.10
2023-01-28T21:44:00.320Z,2.10
2023-01-28T21:46:29.423Z,2.10
2023-01-28T21:48:58.163Z,2.10
2023-01-28T21:51:45.977Z,2.00
2023-01-28T21:54:15.872Z,2.00
2023-01-28T21:56:45.666Z,2.10
2023-01-28T21:59:28.648Z,2.00
2023-01-28T22:01:58.913Z,2.00
2023-01-28T22:04:28.350Z,1.90
2023-01-28T22:06:58.445Z,2.00
2023-01-28T22:09:26.819Z,2.00
2023-01-28T22:11:54.621Z,1.90
2023-01-28T22:14:22.650Z,2.00
2023-01-28T22:16:50.521Z,2.00
2023-01-28T22:19:18.644Z,2.00
2023-01-28T22:21:47.008Z,1.90
2023-01-28T22:24:17.938Z,1.90
2023-01-28T22:26:46.538Z,1.90
2023-01-28T22:29:16.575Z,1.90
2023-01-28T22:31:46.587Z,1.90
2023-01-28T22:34:14.877Z,1.90
2023-01-28T22:36:42.933Z,1.90
2023-01-28T22:39:14.221Z,1.90
2023-01-28T22:41:44.554Z,1.90
2023-01-28T22:44:12.622Z,1.90
2023-01-28T22:46:40.533Z,1.90
2023-01-28T22:49:11.564Z,1.90
2023-01-28T22:51:39.405Z,1.90
2023-01-28T22:54:07.252Z,1.90
2023-01-28T22:56:35.033Z,1.90
2023-01-28T22:59:04.967Z,1.90
2023-01-28T23:01:33.170Z,1.90
2023-01-28T23:04:01.192Z,1.90
2023-01-28T23:06:33.580Z,1.90
2023-01-28T23:09:01.400Z,1.90
2023-01-28T23:11:29.304Z,1.90
2023-01-28T23:14:18.550Z,1.90
2023-01-28T23:17:06.190Z,1.90
2023-01-28T23:19:52.402Z,1.90
2023-01-28T23:22:41.551Z,1.90
2023-01-28T23:25:10.137Z,1.90
2023-01-28T23:27:38.185Z,1.90
2023-01-28T23:30:09.983Z,1.90
2023-01-28T23:32:40.875Z,1.90
2023-01-28T23:35:09.460Z,1.90
2023-01-28T23:37:37.314Z,1.90
2023-01-28T23:40:06.291Z,1.90
2023-01-28T23:42:34.428Z,1.90
2023-01-28T23:45:02.319Z,1.90
2023-01-28T23:47:30.124Z,1.90
2023-01-28T23:49:59.301Z,1.90
2023-01-28T23:52:27.143Z,1.90
2023-01-28T23:54:54.944Z,1.90
2023-01-28T23:57:22.825Z,1.90
2023-01-28T23:59:53.953Z,1.90
